createdAt,value
2024-02-26T00:00:36.141Z,99794.44
2024-02-26T00:03:04.004Z,99801.03
2024-02-26T00:05:32.660Z,99804.59
2024-02-26T00:08:03.517Z,99799.41
2024-02-26T00:10:33.075Z,99803.75
2024-02-26T00:13:00.637Z,99800.88
2024-02-26T00:15:29.130Z,99793.97
2024-02-26T00:17:57.027Z,99784.63
2024-02-26T00:20:24.574Z,99787.84
2024-02-26T00:22:52.177Z,99803.50
2024-02-26T00:25:19.794Z,99806.88
2024-02-26T00:27:47.350Z,99806.88
2024-02-26T00:30:15.095Z,99814.28
2024-02-26T00:32:42.781Z,99812.69
2024-02-26T00:35:10.912Z,99820.56
2024-02-26T00:37:38.445Z,99815.56
2024-02-26T00:40:08.172Z,99821.56
2024-02-26T00:42:36.965Z,99812.22
2024-02-26T00:45:04.948Z,99812.22
2024-02-26T00:47:32.568Z,99814.16
2024-02-26T00:50:00.219Z,99803.81
2024-02-26T00:52:27.728Z,99801.41
2024-02-26T00:54:55.276Z,99793.19
2024-02-26T00:57:22.847Z,99792.53
2024-02-26T00:59:51.931Z,99786.56
2024-02-26T01:02:19.516Z,99784.63
2024-02-26T01:04:47.170Z,99787.69
2024-02-26T01:07:14.955Z,99778.97
2024-02-26T01:09:43.963Z,99784.78
2024-02-26T01:12:11.582Z,99781.56
2024-02-26T01:14:39.353Z,99775.56
2024-02-26T01:17:06.916Z,99776.69
2024-02-26T01:19:34.534Z,99795.06
2024-02-26T01:22:02.061Z,99819.88
2024-02-26T01:24:30.776Z,99819.69
2024-02-26T01:26:58.593Z,99813.56
2024-02-26T01:29:26.190Z,99825.34
2024-02-26T01:31:53.676Z,99833.22
2024-02-26T01:34:21.337Z,99826.34
2024-02-26T01:36:48.916Z,99813.91
2024-02-26T01:39:16.595Z,99819.72
2024-02-26T01:41:44.472Z,99833.75
2024-02-26T01:44:14.614Z,99835.16
2024-02-26T01:46:43.192Z,99837.28
2024-02-26T01:49:14.373Z,99838.09
2024-02-26T01:51:44.815Z,99829.06
2024-02-26T01:54:12.983Z,99831.47
2024-02-26T01:56:42.474Z,99838.03
2024-02-26T01:59:10.681Z,99848.53
2024-02-26T02:01:43.759Z,99842.03
2024-02-26T02:04:11.554Z,99848.28
2024-02-26T02:06:39.671Z,99835.72
2024-02-26T02:09:08.863Z,99841.19
2024-02-26T02:11:36.869Z,99839.41
2024-02-26T02:14:04.497Z,99839.69
2024-02-26T02:16:32.315Z,99850.97
2024-02-26T02:19:00.506Z,99846.13
2024-02-26T02:21:28.096Z,99846.44
2024-02-26T02:23:55.665Z,99853.31
2024-02-26T02:26:23.576Z,99847.03
2024-02-26T02:28:51.480Z,99837.34
2024-02-26T02:31:19.074Z,99838.13
2024-02-26T02:33:47.021Z,99838.44
2024-02-26T02:36:14.735Z,99836.00
2024-02-26T02:38:52.583Z,99832.16
2024-02-26T02:41:20.458Z,99839.06
2024-02-26T02:43:47.981Z,99839.69
2024-02-26T02:46:15.923Z,99834.53
2024-02-26T02:48:44.260Z,99839.69
2024-02-26T02:51:12.154Z,99826.31
2024-02-26T02:53:39.773Z,99837.38
2024-02-26T02:56:07.541Z,99834.97
2024-02-26T02:58:35.138Z,99847.03
2024-02-26T03:01:02.849Z,99842.19
2024-02-26T03:03:30.522Z,99839.44
2024-02-26T03:05:58.246Z,99840.56
2024-02-26T03:08:26.950Z,99837.34
2024-02-26T03:10:54.635Z,99830.53
2024-02-26T03:13:22.524Z,99841.81
2024-02-26T03:15:50.114Z,99848.41
2024-02-26T03:18:18.065Z,99848.41
2024-02-26T03:20:45.754Z,99836.66
2024-02-26T03:23:16.251Z,99833.91
2024-02-26T03:25:47.215Z,99833.59
2024-02-26T03:28:15.392Z,99847.88
2024-02-26T03:30:42.873Z,99840.50
2024-02-26T03:33:10.553Z,99838.44
2024-02-26T03:35:38.095Z,99835.69
2024-02-26T03:38:05.610Z,99829.13
2024-02-26T03:40:33.764Z,99834.59
2024-02-26T03:43:01.299Z,99837.63
2024-02-26T03:45:29.038Z,99840.88
2024-02-26T03:47:56.784Z,99838.03
2024-02-26T03:50:24.423Z,99838.03
2024-02-26T03:52:52.143Z,99851.19
2024-02-26T03:55:25.774Z,99848.13
2024-02-26T03:57:53.536Z,99852.50
2024-02-26T04:00:23.234Z,99849.78
2024-02-26T04:02:51.245Z,99853.59
2024-02-26T04:05:19.013Z,99858.59
2024-02-26T04:07:46.545Z,99875.34
2024-02-26T04:10:14.499Z,99871.59
2024-02-26T04:12:43.452Z,99864.50
2024-02-26T04:15:11.912Z,99870.59
2024-02-26T04:17:40.066Z,99868.66
2024-02-26T04:20:08.754Z,99866.56
2024-02-26T04:22:36.271Z,99866.34
2024-02-26T04:25:04.301Z,99873.28
2024-02-26T04:27:31.941Z,99861.81
2024-02-26T04:29:59.558Z,99871.34
2024-02-26T04:32:27.206Z,99870.22
2024-02-26T04:34:55.461Z,99878.09
2024-02-26T04:37:23.056Z,99881.16
2024-02-26T04:39:51.372Z,99877.63
2024-02-26T04:42:19.128Z,99885.03
2024-02-26T04:44:46.752Z,99889.97
2024-02-26T04:47:15.109Z,99886.75
2024-02-26T04:49:42.750Z,99894.03
2024-02-26T04:52:10.411Z,99896.28
2024-02-26T04:54:37.990Z,99891.09
2024-02-26T04:57:06.012Z,99888.34
2024-02-26T04:59:33.872Z,99889.97
2024-02-26T05:02:01.475Z,99901.44
2024-02-26T05:04:29.107Z,99895.16
2024-02-26T05:06:56.802Z,99898.06
2024-02-26T05:09:24.562Z,99906.78
2024-02-26T05:11:52.458Z,99902.94
2024-02-26T05:14:20.081Z,99897.16
2024-02-26T05:16:48.007Z,99892.47
2024-02-26T05:19:15.541Z,99893.00
2024-02-26T05:21:45.209Z,99888.94
2024-02-26T05:24:12.852Z,99896.34
2024-02-26T05:26:40.351Z,99891.06
2024-02-26T05:29:07.794Z,99903.13
2024-02-26T05:31:35.429Z,99895.72
2024-02-26T05:34:03.068Z,99898.75
2024-02-26T05:36:34.358Z,99907.50
2024-02-26T05:39:02.800Z,99902.63
2024-02-26T05:41:30.965Z,99910.03
2024-02-26T05:43:59.416Z,99918.22
2024-02-26T05:46:28.219Z,99915.81
2024-02-26T05:48:56.140Z,99922.41
2024-02-26T05:51:30.604Z,99920.59
2024-02-26T05:53:59.129Z,99917.03
2024-02-26T05:56:26.657Z,99918.97
2024-02-26T05:58:55.226Z,99936.19
2024-02-26T06:01:22.902Z,99936.69
2024-02-26T06:03:50.947Z,99943.28
2024-02-26T06:06:19.232Z,99940.06
2024-02-26T06:08:46.938Z,99946.94
2024-02-26T06:11:14.452Z,99935.69
2024-02-26T06:13:41.944Z,99939.84
2024-02-26T06:16:09.870Z,99946.13
2024-02-26T06:18:37.542Z,99950.47
2024-02-26T06:21:05.586Z,99961.25
2024-02-26T06:23:33.406Z,99963.47
2024-02-26T06:26:00.890Z,99944.63
2024-02-26T06:28:31.532Z,99957.19
2024-02-26T06:30:59.219Z,99959.41
2024-02-26T06:33:26.767Z,99964.91
2024-02-26T06:35:54.401Z,99966.63
2024-02-26T06:38:21.974Z,99969.34
2024-02-26T06:40:49.473Z,99973.81
2024-02-26T06:43:17.176Z,99976.03
2024-02-26T06:45:44.650Z,99979.59
2024-02-26T06:48:12.300Z,99979.69
2024-02-26T06:50:39.900Z,99983.22
2024-02-26T06:53:08.827Z,99984.66
2024-02-26T06:55:36.442Z,99986.56
2024-02-26T06:58:04.103Z,99980.91
2024-02-26T07:00:31.729Z,99987.19
2024-02-26T07:02:59.867Z,99986.06
2024-02-26T07:05:28.871Z,99990.72
2024-02-26T07:07:56.401Z,99992.34
2024-02-26T07:10:23.847Z,99997.00
2024-02-26T07:12:51.434Z,100003.28
2024-02-26T07:15:19.826Z,99997.50
2024-02-26T07:17:48.619Z,100008.44
2024-02-26T07:20:17.890Z,99999.16
2024-02-26T07:22:45.513Z,100015.03
2024-02-26T07:25:14.758Z,100015.56
2024-02-26T07:27:42.567Z,100021.53
2024-02-26T07:30:12.821Z,100027.00
2024-02-26T07:32:40.500Z,100029.22
2024-02-26T07:35:08.546Z,100036.31
2024-02-26T07:37:36.112Z,100038.16
2024-02-26T07:40:05.228Z,100034.28
2024-02-26T07:42:32.954Z,100038.94
2024-02-26T07:45:00.786Z,100040.88
2024-02-26T07:47:28.520Z,100035.41
2024-02-26T07:49:56.006Z,100037.63
2024-02-26T07:52:23.979Z,100042.19
2024-02-26T07:54:51.584Z,100054.75
2024-02-26T07:57:19.254Z,100053.94
2024-02-26T07:59:50.869Z,100063.25
2024-02-26T08:02:18.780Z,100064.06
2024-02-26T08:04:46.379Z,100066.50
2024-02-26T08:07:14.145Z,100056.38
2024-02-26T08:09:41.892Z,100066.81
2024-02-26T08:12:09.788Z,100076.34
2024-02-26T08:14:37.304Z,100071.38
2024-02-26T08:17:05.233Z,100080.38
2024-02-26T08:19:32.954Z,100076.03
2024-02-26T08:22:03.594Z,100081.72
2024-02-26T08:24:32.311Z,100090.91
2024-02-26T08:26:59.939Z,100098.31
2024-02-26T08:29:27.464Z,100099.94
2024-02-26T08:31:55.007Z,100101.38
2024-02-26T08:34:22.876Z,100112.81
2024-02-26T08:36:51.895Z,100108.69
2024-02-26T08:39:19.557Z,100115.53
2024-02-26T08:41:47.412Z,100115.25
2024-02-26T08:44:15.151Z,100115.53
2024-02-26T08:46:42.892Z,100116.34
2024-02-26T08:49:10.678Z,100121.53
2024-02-26T08:51:46.380Z,100131.38
2024-02-26T08:54:14.065Z,100129.44
2024-02-26T08:56:41.728Z,100128.31
2024-02-26T08:59:10.411Z,100129.44
2024-02-26T09:01:37.917Z,100132.19
2024-02-26T09:04:05.593Z,100133.78
2024-02-26T09:06:33.219Z,100136.53
2024-02-26T09:09:02.027Z,100135.13
2024-02-26T09:11:30.203Z,100144.75
2024-02-26T09:13:57.802Z,100152.06
2024-02-26T09:16:25.806Z,100143.84
2024-02-26T09:18:53.575Z,100149.00
2024-02-26T09:21:24.606Z,100141.09
2024-02-26T09:23:52.787Z,100154.78
2024-02-26T09:26:20.308Z,100160.56
2024-02-26T09:28:47.924Z,100161.06
2024-02-26T09:31:18.838Z,100163.50
2024-02-26T09:33:47.156Z,100177.69
2024-02-26T09:36:15.416Z,100176.81
2024-02-26T09:38:52.317Z,100178.81
2024-02-26T09:41:24.344Z,100181.84
2024-02-26T09:43:57.709Z,100189.97
2024-02-26T09:46:26.763Z,100196.25
2024-02-26T09:48:54.993Z,100197.66
2024-02-26T09:51:27.652Z,100193.81
2024-02-26T09:53:57.531Z,100204.75
2024-02-26T09:56:25.605Z,100199.28
2024-02-26T09:58:55.865Z,100207.19
2024-02-26T10:01:25.503Z,100210.44
2024-02-26T10:03:58.759Z,100216.44
2024-02-26T10:06:28.600Z,100217.22
2024-02-26T10:08:59.757Z,100229.81
2024-02-26T10:11:28.752Z,100229.22
2024-02-26T10:13:56.278Z,100236.63
2024-02-26T10:16:24.212Z,100236.63
2024-02-26T10:18:59.485Z,100240.16
2024-02-26T10:21:29.009Z,100242.91
2024-02-26T10:23:56.669Z,100245.31
2024-02-26T10:26:24.282Z,100254.88
2024-02-26T10:28:55.092Z,100255.69
2024-02-26T10:31:23.703Z,100269.66
2024-02-26T10:33:56.277Z,100267.94
2024-02-26T10:36:26.706Z,100275.66
2024-02-26T10:38:56.575Z,100276.56
2024-02-26T10:41:24.196Z,100277.88
2024-02-26T10:43:53.145Z,100279.50
2024-02-26T10:46:21.261Z,100284.19
2024-02-26T10:48:53.416Z,100286.91
2024-02-26T10:51:32.040Z,100291.56
2024-02-26T10:54:05.627Z,100299.19
2024-02-26T10:56:38.924Z,100294.00
2024-02-26T10:59:10.420Z,100302.50
2024-02-26T11:01:42.484Z,100298.38
2024-02-26T11:04:11.723Z,100298.69
2024-02-26T11:06:39.852Z,100302.00
2024-02-26T11:09:13.865Z,100313.44
2024-02-26T11:11:42.834Z,100304.97
2024-02-26T11:14:14.373Z,100310.63
2024-02-26T11:16:44.095Z,100311.47
2024-02-26T11:19:15.142Z,100316.09
2024-02-26T11:21:44.160Z,100323.50
2024-02-26T11:24:17.245Z,100320.19
2024-02-26T11:27:00.478Z,100318.84
2024-02-26T11:29:44.667Z,100315.00
2024-02-26T11:32:12.364Z,100322.41
2024-02-26T11:34:40.513Z,100321.00
2024-02-26T11:37:18.651Z,100330.31
2024-02-26T11:39:47.399Z,100321.00
2024-02-26T11:42:17.316Z,100330.31
2024-02-26T11:44:45.094Z,100319.88
2024-02-26T11:47:20.856Z,100322.84
2024-02-26T11:49:49.400Z,100326.69
2024-02-26T11:52:17.721Z,100334.59
2024-02-26T11:54:54.294Z,100329.13
2024-02-26T11:57:30.355Z,100334.59
2024-02-26T12:00:13.500Z,100331.06
2024-02-26T12:02:44.264Z,100338.44
2024-02-26T12:05:27.534Z,100343.94
2024-02-26T12:08:01.503Z,100348.78
2024-02-26T12:10:37.007Z,100353.44
2024-02-26T12:13:09.950Z,100358.13
2024-02-26T12:15:42.622Z,100361.66
2024-02-26T12:18:16.803Z,100367.44
2024-02-26T12:20:48.196Z,100374.53
2024-02-26T12:23:18.674Z,100382.75
2024-02-26T12:25:49.212Z,100378.09
2024-02-26T12:28:17.018Z,100379.53
2024-02-26T12:30:44.693Z,100393.50
2024-02-26T12:33:12.574Z,100387.44
2024-02-26T12:35:40.545Z,100388.84
2024-02-26T12:38:08.970Z,100394.91
2024-02-26T12:40:36.830Z,100405.06
2024-02-26T12:43:04.634Z,100394.91
2024-02-26T12:45:33.178Z,100412.44
2024-02-26T12:48:01.096Z,100411.91
2024-02-26T12:50:29.129Z,100416.88
2024-02-26T12:52:56.638Z,100432.19
2024-02-26T12:55:24.327Z,100418.31
2024-02-26T12:57:53.613Z,100433.31
2024-02-26T13:00:27.341Z,100430.06
2024-02-26T13:02:56.769Z,100432.81
2024-02-26T13:05:25.976Z,100439.28
2024-02-26T13:07:54.298Z,100449.16
2024-02-26T13:10:22.387Z,100444.25
2024-02-26T13:12:54.374Z,100447.50
2024-02-26T13:15:23.464Z,100452.97
2024-02-26T13:17:51.612Z,100451.66
2024-02-26T13:20:31.164Z,100458.44
2024-02-26T13:23:06.998Z,100469.41
2024-02-26T13:25:36.614Z,100466.09
2024-02-26T13:28:18.607Z,100466.09
2024-02-26T13:31:01.293Z,100474.31
2024-02-26T13:33:30.920Z,100478.66
2024-02-26T13:36:00.410Z,100482.22
2024-02-26T13:38:29.668Z,100482.75
2024-02-26T13:40:57.473Z,100496.13
2024-02-26T13:43:25.297Z,100508.72
2024-02-26T13:45:53.004Z,100496.13
2024-02-26T13:48:20.825Z,100499.69
2024-02-26T13:50:48.488Z,100508.72
2024-02-26T13:53:16.377Z,100507.66
2024-02-26T13:55:45.402Z,100510.63
2024-02-26T13:58:15.471Z,100509.22
2024-02-26T14:00:44.290Z,100521.75
2024-02-26T14:03:12.408Z,100520.09
2024-02-26T14:05:40.784Z,100531.91
2024-02-26T14:08:09.026Z,100529.97
2024-02-26T14:10:37.225Z,100530.47
2024-02-26T14:13:04.986Z,100539.81
2024-02-26T14:15:35.080Z,100540.31
2024-02-26T14:18:04.506Z,100546.91
2024-02-26T14:20:32.125Z,100537.56
2024-02-26T14:23:00.104Z,100555.13
2024-02-26T14:25:30.162Z,100552.13
2024-02-26T14:28:00.102Z,100551.00
2024-02-26T14:30:28.407Z,100555.13
2024-02-26T14:32:56.763Z,100561.13
2024-02-26T14:35:24.616Z,100567.44
2024-02-26T14:37:53.099Z,100571.81
2024-02-26T14:40:20.934Z,100572.63
2024-02-26T14:42:48.641Z,100580.53
2024-02-26T14:45:17.758Z,100598.28
2024-02-26T14:47:45.524Z,100600.53
2024-02-26T14:50:13.166Z,100604.69
2024-02-26T14:52:40.695Z,100603.88
2024-02-26T14:55:08.396Z,100595.94
2024-02-26T14:57:36.151Z,100614.81
2024-02-26T15:00:06.921Z,100614.81
2024-02-26T15:02:34.677Z,100618.06
2024-02-26T15:05:02.477Z,100614.53
2024-02-26T15:07:30.267Z,100613.97
2024-02-26T15:10:00.674Z,100625.47
2024-02-26T15:12:29.020Z,100627.91
2024-02-26T15:15:00.827Z,100640.50
2024-02-26T15:17:29.480Z,100635.03
2024-02-26T15:19:58.386Z,100637.53
2024-02-26T15:22:27.599Z,100636.16
2024-02-26T15:24:55.348Z,100648.78
2024-02-26T15:27:23.106Z,100647.69
2024-02-26T15:29:57.345Z,100653.97
2024-02-26T15:32:25.825Z,100655.91
2024-02-26T15:34:54.114Z,100656.41
2024-02-26T15:37:22.604Z,100662.19
2024-02-26T15:39:50.091Z,100660.53
2024-02-26T15:42:17.726Z,100674.22
2024-02-26T15:44:45.260Z,100670.13
2024-02-26T15:47:12.854Z,100677.53
2024-02-26T15:49:40.447Z,100674.50
2024-02-26T15:52:08.147Z,100679.47
2024-02-26T15:54:41.535Z,100684.94
2024-02-26T15:57:11.914Z,100693.69
2024-02-26T15:59:39.779Z,100684.66
2024-02-26T16:02:07.702Z,100681.09
2024-02-26T16:04:35.472Z,100694.50
2024-02-26T16:07:14.142Z,100695.59
2024-02-26T16:09:42.538Z,100692.06
2024-02-26T16:12:22.495Z,100700.81
2024-02-26T16:14:55.695Z,100699.16
2024-02-26T16:17:49.600Z,100705.72
2024-02-26T16:20:47.380Z,100705.72
2024-02-26T16:24:09.452Z,100720.78
2024-02-26T16:26:38.001Z,100729.25
2024-02-26T16:29:05.555Z,100727.03
2024-02-26T16:31:33.297Z,100730.88
2024-02-26T16:34:00.916Z,100734.72
2024-02-26T16:36:28.720Z,100744.34
2024-02-26T16:38:56.419Z,100750.66
2024-02-26T16:41:24.154Z,100753.38
2024-02-26T16:43:52.071Z,100767.91
2024-02-26T16:46:21.071Z,100767.09
2024-02-26T16:48:52.371Z,100770.34
2024-02-26T16:51:20.438Z,100767.28
2024-02-26T16:53:52.557Z,100782.41
2024-02-26T16:56:20.153Z,100772.81
2024-02-26T16:58:47.651Z,100785.72
2024-02-26T17:01:15.244Z,100788.44
2024-02-26T17:03:43.000Z,100797.75
2024-02-26T17:06:10.825Z,100805.13
2024-02-26T17:08:40.964Z,100805.69
2024-02-26T17:11:08.594Z,100803.22
2024-02-26T17:13:36.561Z,100805.97
2024-02-26T17:16:04.416Z,100808.44
2024-02-26T17:18:32.604Z,100812.53
2024-02-26T17:21:00.707Z,100819.44
2024-02-26T17:23:28.439Z,100826.53
2024-02-26T17:25:58.820Z,100831.72
2024-02-26T17:28:27.018Z,100843.78
2024-02-26T17:30:54.478Z,100842.16
2024-02-26T17:33:22.219Z,100865.16
2024-02-26T17:35:50.644Z,100870.63
2024-02-26T17:38:18.216Z,100876.09
2024-02-26T17:40:45.684Z,100880.75
2024-02-26T17:43:19.525Z,100881.06
2024-02-26T17:45:47.801Z,100887.09
2024-02-26T17:48:16.403Z,100908.47
2024-02-26T17:50:44.023Z,100896.19
2024-02-26T17:53:19.013Z,100900.25
2024-02-26T17:55:50.903Z,100922.47
2024-02-26T17:58:20.909Z,100921.91
2024-02-26T18:00:49.363Z,100923.56
2024-02-26T18:03:19.960Z,100932.59
2024-02-26T18:05:48.514Z,100931.25
2024-02-26T18:08:16.399Z,100927.16
2024-02-26T18:10:44.004Z,100931.56
2024-02-26T18:13:11.556Z,100928.53
2024-02-26T18:15:39.205Z,100940.59
2024-02-26T18:18:07.744Z,100949.09
2024-02-26T18:20:37.349Z,100947.72
2024-02-26T18:23:07.796Z,100951.88
2024-02-26T18:25:44.762Z,100955.72
2024-02-26T18:28:15.683Z,100959.00
2024-02-26T18:30:46.718Z,100965.06
2024-02-26T18:33:15.844Z,100965.31
2024-02-26T18:35:43.756Z,100960.94
2024-02-26T18:38:11.261Z,100979.81
2024-02-26T18:40:39.198Z,100974.34
2024-02-26T18:43:06.755Z,100983.97
2024-02-26T18:45:34.334Z,100987.50
2024-02-26T18:48:04.480Z,100989.44
2024-02-26T18:50:32.173Z,100989.72
2024-02-26T18:53:03.185Z,100999.84
2024-02-26T18:55:33.931Z,100991.91
2024-02-26T18:58:02.907Z,101009.97
2024-02-26T19:00:30.653Z,101010.25
2024-02-26T19:02:58.547Z,101013.28
2024-02-26T19:05:28.801Z,101021.47
2024-02-26T19:07:59.735Z,101029.69
2024-02-26T19:10:27.686Z,101028.31
2024-02-26T19:12:55.641Z,101029.97
2024-02-26T19:15:23.275Z,101037.38
2024-02-26T19:17:51.826Z,101036.28
2024-02-26T19:20:22.172Z,101049.97
2024-02-26T19:22:50.551Z,101055.44
2024-02-26T19:25:18.127Z,101058.16
2024-02-26T19:27:45.715Z,101059.53
2024-02-26T19:30:13.513Z,101068.84
2024-02-26T19:32:41.179Z,101074.31
2024-02-26T19:35:11.182Z,101068.56
2024-02-26T19:37:39.096Z,101071.06
2024-02-26T19:40:07.790Z,101074.31
2024-02-26T19:42:35.554Z,101079.50
2024-02-26T19:45:03.514Z,101069.69
2024-02-26T19:47:31.309Z,101078.16
2024-02-26T19:49:58.865Z,101087.19
2024-02-26T19:52:26.435Z,101092.13
2024-02-26T19:54:53.960Z,101094.88
2024-02-26T19:57:21.645Z,101104.16
2024-02-26T19:59:49.252Z,101105.53
2024-02-26T20:02:16.947Z,101101.16
2024-02-26T20:04:44.704Z,101111.28
2024-02-26T20:07:32.880Z,101115.94
2024-02-26T20:10:00.602Z,101135.34
2024-02-26T20:12:29.466Z,101129.34
2024-02-26T20:14:57.100Z,101136.19
2024-02-26T20:17:24.655Z,101134.56
2024-02-26T20:19:58.671Z,101141.13
2024-02-26T20:22:26.668Z,101151.53
2024-02-26T20:24:56.009Z,101151.53
2024-02-26T20:27:23.675Z,101149.63
2024-02-26T20:29:56.886Z,101159.75
2024-02-26T20:32:27.264Z,101171.78
2024-02-26T20:34:54.941Z,101160.00
2024-02-26T20:37:25.437Z,101152.34
2024-02-26T20:39:54.617Z,101166.56
2024-02-26T20:42:22.176Z,101178.34
2024-02-26T20:44:49.708Z,101183.00
2024-02-26T20:47:18.109Z,101202.13
2024-02-26T20:49:45.808Z,101201.88
2024-02-26T20:52:13.618Z,101226.22
2024-02-26T20:54:42.868Z,101217.44
2024-02-26T20:57:11.395Z,101225.13
2024-02-26T20:59:42.062Z,101233.06
2024-02-26T21:02:10.744Z,101230.31
2024-02-26T21:04:39.874Z,101222.41
2024-02-26T21:07:08.165Z,101239.34
2024-02-26T21:09:35.904Z,101251.38
2024-02-26T21:12:04.011Z,101251.38
2024-02-26T21:14:31.623Z,101262.31
2024-02-26T21:16:59.154Z,101263.44
2024-02-26T21:19:26.779Z,101251.38
2024-02-26T21:21:54.653Z,101265.88
2024-02-26T21:24:22.232Z,101278.75
2024-02-26T21:26:50.740Z,101278.19
2024-02-26T21:29:18.341Z,101282.56
2024-02-26T21:31:46.023Z,101291.88
2024-02-26T21:34:15.611Z,101285.59
2024-02-26T21:36:43.325Z,101273.00
2024-02-26T21:39:12.192Z,101287.75
2024-02-26T21:41:39.863Z,101296.81
2024-02-26T21:44:07.943Z,101308.00
2024-02-26T21:46:44.250Z,101294.06
2024-02-26T21:49:12.016Z,101297.34
2024-02-26T21:51:48.601Z,101303.09
2024-02-26T21:54:16.616Z,101301.47
2024-02-26T21:56:45.069Z,101303.63
2024-02-26T21:59:12.951Z,101298.97
2024-02-26T22:01:40.466Z,101316.78
2024-02-26T22:04:08.212Z,101303.63
2024-02-26T22:06:37.041Z,101314.84
2024-02-26T22:09:09.493Z,101316.50
2024-02-26T22:11:40.029Z,101320.59
2024-02-26T22:14:08.020Z,101324.16
2024-02-26T22:16:35.669Z,101324.41
2024-02-26T22:19:04.695Z,101332.34
2024-02-26T22:21:38.468Z,101341.38
2024-02-26T22:24:07.211Z,101344.66
2024-02-26T22:26:35.530Z,101347.94
2024-02-26T22:29:03.061Z,101340.28
2024-02-26T22:31:30.721Z,101340.56
2024-02-26T22:33:58.650Z,101340.56
2024-02-26T22:36:26.307Z,101350.41
2024-02-26T22:38:55.926Z,101348.75
2024-02-26T22:41:23.643Z,101349.00
2024-02-26T22:43:51.156Z,101351.50
2024-02-26T22:46:18.676Z,101350.41
2024-02-26T22:48:46.331Z,101350.41
2024-02-26T22:51:14.657Z,101343.84
2024-02-26T22:53:42.279Z,101334.00
2024-02-26T22:56:10.593Z,101339.75
2024-02-26T22:58:38.122Z,101328.53
2024-02-26T23:01:05.710Z,101335.09
2024-02-26T23:03:33.379Z,101342.47
2024-02-26T23:06:01.276Z,101335.34
2024-02-26T23:08:28.907Z,101347.66
2024-02-26T23:10:56.429Z,101347.09
2024-02-26T23:13:24.775Z,101356.13
2024-02-26T23:15:55.303Z,101363.25
2024-02-26T23:18:24.954Z,101365.16
2024-02-26T23:20:53.757Z,101376.63
2024-02-26T23:23:21.370Z,101378.81
2024-02-26T23:25:48.940Z,101372.53
2024-02-26T23:28:16.802Z,101381.53
2024-02-26T23:30:44.514Z,101376.59
2024-02-26T23:33:12.236Z,101385.09
2024-02-26T23:35:40.222Z,101380.44
2024-02-26T23:38:13.782Z,101381.81
2024-02-26T23:40:41.448Z,101391.88
2024-02-26T23:43:09.110Z,101394.91
2024-02-26T23:45:36.728Z,101396.81
2024-02-26T23:48:05.917Z,101402.56
2024-02-26T23:50:35.862Z,101404.72
2024-02-26T23:53:05.338Z,101414.31
2024-02-26T23:55:33.181Z,101410.50
2024-02-26T23:58:00.900Z,101402.56
